sensor_id;sensor_type;location;lat;lon;timestamp;pressure;altitude;pressure_sealevel;temperature;humidity
46111;BME280;31849;55.992;37.252;2023-09-30T00:03:04;99456.94;;;12.57;59.97
46111;BME280;31849;55.992;37.252;2023-09-30T00:08:08;99458.72;;;12.52;60.26
46111;BME280;31849;55.992;37.252;2023-09-30T00:13:13;99461.31;;;12.54;60.27
46111;BME280;31849;55.992;37.252;2023-09-30T00:18:18;99461.28;;;12.57;59.97
46111;BME280;31849;55.992;37.252;2023-09-30T00:23:21;99456.28;;;12.38;60.50
46111;BME280;31849;55.992;37.252;2023-09-30T00:28:25;99460.72;;;12.27;61.04
46111;BME280;31849;55.992;37.252;2023-09-30T00:33:31;99454.59;;;12.32;61.00
46111;BME280;31849;55.992;37.252;2023-09-30T00:38:35;99457.31;;;12.19;61.35
46111;BME280;31849;55.992;37.252;2023-09-30T00:43:39;99458.16;;;12.21;61.36
46111;BME280;31849;55.992;37.252;2023-09-30T00:48:44;99461.63;;;12.21;61.64
46111;BME280;31849;55.992;37.252;2023-09-30T00:53:49;99450.47;;;12.10;62.07
46111;BME280;31849;55.992;37.252;2023-09-30T00:58:54;99441.81;;;12.05;62.31
46111;BME280;31849;55.992;37.252;2023-09-30T01:03:59;99444.38;;;12.09;60.85
46111;BME280;31849;55.992;37.252;2023-09-30T01:09:04;99435.81;;;11.93;62.24
46111;BME280;31849;55.992;37.252;2023-09-30T01:14:26;99440.97;;;12.01;62.43
46111;BME280;31849;55.992;37.252;2023-09-30T01:19:31;99421.97;;;11.84;62.15
46111;BME280;31849;55.992;37.252;2023-09-30T01:24:39;99441.03;;;11.89;62.18
46111;BME280;31849;55.992;37.252;2023-09-30T01:29:44;99442.84;;;11.81;62.57
46111;BME280;31849;55.992;37.252;2023-09-30T01:34:47;99429.88;;;11.74;62.42
46111;BME280;31849;55.992;37.252;2023-09-30T01:39:52;99433.41;;;11.64;62.10
46111;BME280;31849;55.992;37.252;2023-09-30T01:44:57;99432.63;;;11.53;62.76
46111;BME280;31849;55.992;37.252;2023-09-30T01:50:00;99426.56;;;11.51;62.96
46111;BME280;31849;55.992;37.252;2023-09-30T01:55:06;99423.13;;;11.46;63.05
46111;BME280;31849;55.992;37.252;2023-09-30T02:00:10;99424.06;;;11.32;63.32
46111;BME280;31849;55.992;37.252;2023-09-30T02:05:14;99417.22;;;11.14;64.50
46111;BME280;31849;55.992;37.252;2023-09-30T02:10:19;99424.13;;;11.21;64.89
46111;BME280;31849;55.992;37.252;2023-09-30T02:15:23;99418.06;;;11.21;64.83
46111;BME280;31849;55.992;37.252;2023-09-30T02:20:27;99415.44;;;11.25;65.27
46111;BME280;31849;55.992;37.252;2023-09-30T02:25:34;99418.84;;;11.34;65.36
46111;BME280;31849;55.992;37.252;2023-09-30T02:30:37;99417.00;;;11.53;64.62
46111;BME280;31849;55.992;37.252;2023-09-30T02:35:43;99415.28;;;11.47;65.18
46111;BME280;31849;55.992;37.252;2023-09-30T02:40:49;99410.91;;;11.55;65.04
46111;BME280;31849;55.992;37.252;2023-09-30T02:45:53;99410.91;;;11.54;65.46
46111;BME280;31849;55.992;37.252;2023-09-30T02:50:57;99396.19;;;11.48;65.44
46111;BME280;31849;55.992;37.252;2023-09-30T02:56:02;99403.94;;;11.59;65.45
46111;BME280;31849;55.992;37.252;2023-09-30T03:01:06;99395.28;;;11.57;65.44
46111;BME280;31849;55.992;37.252;2023-09-30T03:06:12;99390.13;;;11.48;65.80
46111;BME280;31849;55.992;37.252;2023-09-30T03:11:18;99385.81;;;11.45;66.37
46111;BME280;31849;55.992;37.252;2023-09-30T03:16:25;99396.22;;;11.47;66.23
46111;BME280;31849;55.992;37.252;2023-09-30T03:21:28;99389.22;;;11.50;66.33
46111;BME280;31849;55.992;37.252;2023-09-30T03:26:34;99386.56;;;11.63;65.85
46111;BME280;31849;55.992;37.252;2023-09-30T03:31:37;99374.41;;;11.60;65.68
46111;BME280;31849;55.992;37.252;2023-09-30T03:36:41;99387.31;;;11.72;65.44
46111;BME280;31849;55.992;37.252;2023-09-30T03:41:46;99392.41;;;11.88;65.45
46111;BME280;31849;55.992;37.252;2023-09-30T03:46:51;99388.91;;;11.96;64.92
46111;BME280;31849;55.992;37.252;2023-09-30T03:51:54;99390.53;;;12.10;64.43
46111;BME280;31849;55.992;37.252;2023-09-30T03:57:00;99389.31;;;12.40;63.14
46111;BME280;31849;55.992;37.252;2023-09-30T04:02:05;99386.81;;;12.32;63.45
46111;BME280;31849;55.992;37.252;2023-09-30T04:07:10;99393.63;;;12.44;63.22
46111;BME280;31849;55.992;37.252;2023-09-30T04:12:15;99388.06;;;12.72;62.96
46111;BME280;31849;55.992;37.252;2023-09-30T04:17:19;99383.59;;;12.82;62.95
46111;BME280;31849;55.992;37.252;2023-09-30T04:22:22;99387.69;;;13.01;62.73
46111;BME280;31849;55.992;37.252;2023-09-30T04:27:29;99389.94;;;13.28;62.04
46111;BME280;31849;55.992;37.252;2023-09-30T04:32:32;99392.25;;;13.49;61.76
46111;BME280;31849;55.992;37.252;2023-09-30T04:37:36;99391.94;;;13.69;61.60
46111;BME280;31849;55.992;37.252;2023-09-30T04:42:41;99392.16;;;14.08;60.92
46111;BME280;31849;55.992;37.252;2023-09-30T04:47:46;99381.16;;;15.24;58.40
46111;BME280;31849;55.992;37.252;2023-09-30T04:52:51;99390.59;;;17.57;53.21
46111;BME280;31849;55.992;37.252;2023-09-30T04:57:56;99390.00;;;21.47;45.23
46111;BME280;31849;55.992;37.252;2023-09-30T05:03:00;99378.28;;;24.75;38.56
46111;BME280;31849;55.992;37.252;2023-09-30T05:08:04;99379.63;;;26.31;35.80
46111;BME280;31849;55.992;37.252;2023-09-30T05:13:10;99379.16;;;28.46;36.02
46111;BME280;31849;55.992;37.252;2023-09-30T05:18:14;99381.41;;;28.74;31.61
46111;BME280;31849;55.992;37.252;2023-09-30T05:23:17;99373.72;;;29.26;30.79
46111;BME280;31849;55.992;37.252;2023-09-30T05:28:22;99371.19;;;27.26;33.35
46111;BME280;31849;55.992;37.252;2023-09-30T05:33:26;99371.06;;;27.03;33.38
46111;BME280;31849;55.992;37.252;2023-09-30T05:38:30;99361.28;;;26.53;33.73
46111;BME280;31849;55.992;37.252;2023-09-30T05:43:35;99360.69;;;24.44;37.95
46111;BME280;31849;55.992;37.252;2023-09-30T05:48:38;99350.47;;;22.33;40.77
46111;BME280;31849;55.992;37.252;2023-09-30T05:53:42;99358.53;;;22.30;41.59
46111;BME280;31849;55.992;37.252;2023-09-30T05:58:47;99351.13;;;26.96;33.77
46111;BME280;31849;55.992;37.252;2023-09-30T06:03:51;99355.06;;;30.53;28.70
46111;BME280;31849;55.992;37.252;2023-09-30T06:08:54;99340.53;;;31.56;27.19
46111;BME280;31849;55.992;37.252;2023-09-30T06:14:01;99347.47;;;32.83;25.88
46111;BME280;31849;55.992;37.252;2023-09-30T06:19:08;99348.88;;;34.66;23.29
46111;BME280;31849;55.992;37.252;2023-09-30T06:24:11;99347.81;;;35.44;22.23
46111;BME280;31849;55.992;37.252;2023-09-30T06:29:16;99344.97;;;36.68;20.62
46111;BME280;31849;55.992;37.252;2023-09-30T06:34:21;99331.19;;;37.72;19.83
46111;BME280;31849;55.992;37.252;2023-09-30T06:39:25;99335.81;;;39.05;18.34
46111;BME280;31849;55.992;37.252;2023-09-30T06:44:30;99332.06;;;40.91;16.76
46111;BME280;31849;55.992;37.252;2023-09-30T06:49:34;99330.63;;;41.02;16.49
46111;BME280;31849;55.992;37.252;2023-09-30T06:54:37;99333.25;;;41.51;15.54
46111;BME280;31849;55.992;37.252;2023-09-30T06:59:43;99331.59;;;41.96;15.77
46111;BME280;31849;55.992;37.252;2023-09-30T07:04:46;99327.91;;;41.02;16.46
46111;BME280;31849;55.992;37.252;2023-09-30T07:09:50;99321.53;;;41.83;15.44
46111;BME280;31849;55.992;37.252;2023-09-30T07:14:55;99318.38;;;43.17;14.83
46111;BME280;31849;55.992;37.252;2023-09-30T07:19:59;99321.47;;;42.30;15.04
46111;BME280;31849;55.992;37.252;2023-09-30T07:25:05;99312.13;;;42.65;15.13
46111;BME280;31849;55.992;37.252;2023-09-30T07:30:11;99312.34;;;42.70;15.13
46111;BME280;31849;55.992;37.252;2023-09-30T07:35:18;99312.78;;;43.05;14.08
46111;BME280;31849;55.992;37.252;2023-09-30T07:40:21;99299.63;;;43.53;14.49
46111;BME280;31849;55.992;37.252;2023-09-30T07:45:26;99290.66;;;43.46;14.46
46111;BME280;31849;55.992;37.252;2023-09-30T07:50:30;99295.31;;;43.38;14.76
46111;BME280;31849;55.992;37.252;2023-09-30T07:55:34;99299.22;;;42.79;14.19
46111;BME280;31849;55.992;37.252;2023-09-30T08:00:39;99294.53;;;42.41;14.97
46111;BME280;31849;55.992;37.252;2023-09-30T08:05:46;99272.38;;;41.57;15.22
46111;BME280;31849;55.992;37.252;2023-09-30T08:10:50;99282.44;;;41.49;15.35
46111;BME280;31849;55.992;37.252;2023-09-30T08:15:59;99278.06;;;40.73;16.00
46111;BME280;31849;55.992;37.252;2023-09-30T08:21:02;99267.09;;;41.08;15.49
46111;BME280;31849;55.992;37.252;2023-09-30T08:26:06;99270.47;;;41.30;15.48
46111;BME280;31849;55.992;37.252;2023-09-30T08:31:12;99259.19;;;39.38;16.73
46111;BME280;31849;55.992;37.252;2023-09-30T08:36:16;99254.34;;;37.71;17.94
46111;BME280;31849;55.992;37.252;2023-09-30T08:41:30;99241.66;;;35.17;19.97
46111;BME280;31849;55.992;37.252;2023-09-30T08:46:36;99236.41;;;32.43;23.07
46111;BME280;31849;55.992;37.252;2023-09-30T08:51:40;99224.81;;;30.90;25.27
46111;BME280;31849;55.992;37.252;2023-09-30T08:56:47;99228.16;;;29.49;26.89
46111;BME280;31849;55.992;37.252;2023-09-30T09:01:53;99224.91;;;28.80;27.84
46111;BME280;31849;55.992;37.252;2023-09-30T09:06:56;99195.41;;;28.25;27.98
46111;BME280;31849;55.992;37.252;2023-09-30T09:12:00;99219.81;;;27.86;29.11
46111;BME280;31849;55.992;37.252;2023-09-30T09:17:06;99217.09;;;27.28;29.38
46111;BME280;31849;55.992;37.252;2023-09-30T09:22:10;99210.56;;;26.97;30.13
46111;BME280;31849;55.992;37.252;2023-09-30T09:27:14;99206.31;;;26.57;30.32
46111;BME280;31849;55.992;37.252;2023-09-30T09:32:20;99201.88;;;26.45;31.03
46111;BME280;31849;55.992;37.252;2023-09-30T09:37:24;99198.06;;;26.36;30.80
46111;BME280;31849;55.992;37.252;2023-09-30T09:42:29;99202.81;;;26.20;30.56
46111;BME280;31849;55.992;37.252;2023-09-30T09:47:39;99196.94;;;25.89;30.87
46111;BME280;31849;55.992;37.252;2023-09-30T09:52:44;99185.22;;;25.78;31.46
46111;BME280;31849;55.992;37.252;2023-09-30T09:57:50;99170.22;;;25.65;31.70
46111;BME280;31849;55.992;37.252;2023-09-30T10:02:54;99174.72;;;25.64;31.75
46111;BME280;31849;55.992;37.252;2023-09-30T10:08:02;99180.06;;;25.24;32.51
46111;BME280;31849;55.992;37.252;2023-09-30T10:13:06;99171.50;;;24.93;33.51
46111;BME280;31849;55.992;37.252;2023-09-30T10:18:12;99161.44;;;25.11;32.68
46111;BME280;31849;55.992;37.252;2023-09-30T10:23:19;99166.31;;;25.17;33.16
46111;BME280;31849;55.992;37.252;2023-09-30T10:28:36;99171.59;;;25.04;33.42
46111;BME280;31849;55.992;37.252;2023-09-30T10:45:04;99155.16;;;24.72;33.00
46111;BME280;31849;55.992;37.252;2023-09-30T10:55:44;99133.91;;;24.57;33.02
46111;BME280;31849;55.992;37.252;2023-09-30T11:00:54;99139.31;;;24.70;33.29
46111;BME280;31849;55.992;37.252;2023-09-30T11:05:58;99129.31;;;24.74;32.80
46111;BME280;31849;55.992;37.252;2023-09-30T11:11:04;99125.91;;;24.72;33.22
46111;BME280;31849;55.992;37.252;2023-09-30T11:16:09;99126.81;;;24.85;32.99
46111;BME280;31849;55.992;37.252;2023-09-30T11:21:12;99120.53;;;24.99;32.67
46111;BME280;31849;55.992;37.252;2023-09-30T11:26:16;99114.28;;;25.00;32.16
46111;BME280;31849;55.992;37.252;2023-09-30T11:31:37;99112.91;;;24.67;32.10
46111;BME280;31849;55.992;37.252;2023-09-30T11:36:47;99104.19;;;24.65;32.03
46111;BME280;31849;55.992;37.252;2023-09-30T11:41:52;99106.22;;;24.47;32.37
46111;BME280;31849;55.992;37.252;2023-09-30T11:47:00;99102.13;;;24.56;32.40
46111;BME280;31849;55.992;37.252;2023-09-30T11:52:08;99103.69;;;24.46;32.04
46111;BME280;31849;55.992;37.252;2023-09-30T11:57:14;99094.75;;;24.19;32.44
46111;BME280;31849;55.992;37.252;2023-09-30T12:02:20;99100.66;;;23.96;32.77
46111;BME280;31849;55.992;37.252;2023-09-30T12:07:23;99081.53;;;23.91;33.19
46111;BME280;31849;55.992;37.252;2023-09-30T12:12:27;99075.19;;;23.93;33.29
46111;BME280;31849;55.992;37.252;2023-09-30T12:17:32;99087.69;;;23.91;33.89
46111;BME280;31849;55.992;37.252;2023-09-30T12:22:35;99077.16;;;24.04;33.62
46111;BME280;31849;55.992;37.252;2023-09-30T12:27:39;99071.75;;;23.77;34.49
46111;BME280;31849;55.992;37.252;2023-09-30T12:32:47;99077.25;;;23.74;34.89
46111;BME280;31849;55.992;37.252;2023-09-30T12:37:50;99077.09;;;23.62;34.71
46111;BME280;31849;55.992;37.252;2023-09-30T12:42:54;99067.31;;;23.48;35.46
46111;BME280;31849;55.992;37.252;2023-09-30T12:47:59;99059.16;;;23.66;35.74
46111;BME280;31849;55.992;37.252;2023-09-30T12:53:03;99058.13;;;23.68;35.60
46111;BME280;31849;55.992;37.252;2023-09-30T12:58:07;99023.53;;;23.56;35.31
46111;BME280;31849;55.992;37.252;2023-09-30T13:03:12;99056.00;;;23.74;36.23
46111;BME280;31849;55.992;37.252;2023-09-30T13:08:17;99060.31;;;23.47;36.27
46111;BME280;31849;55.992;37.252;2023-09-30T13:13:21;99047.81;;;23.49;36.39
46111;BME280;31849;55.992;37.252;2023-09-30T13:18:26;99034.53;;;23.49;36.67
46111;BME280;31849;55.992;37.252;2023-09-30T13:23:29;99039.00;;;23.34;37.12
46111;BME280;31849;55.992;37.252;2023-09-30T13:28:33;99032.66;;;23.23;37.54
46111;BME280;31849;55.992;37.252;2023-09-30T13:33:38;99033.88;;;23.17;37.71
46111;BME280;31849;55.992;37.252;2023-09-30T13:38:41;99019.06;;;22.98;38.08
46111;BME280;31849;55.992;37.252;2023-09-30T13:43:45;99017.16;;;23.00;37.87
46111;BME280;31849;55.992;37.252;2023-09-30T13:48:50;99017.72;;;22.91;38.42
46111;BME280;31849;55.992;37.252;2023-09-30T13:53:55;99026.25;;;22.82;38.21
46111;BME280;31849;55.992;37.252;2023-09-30T13:58:58;99009.38;;;22.69;38.56
46111;BME280;31849;55.992;37.252;2023-09-30T14:04:04;99006.53;;;22.72;39.01
46111;BME280;31849;55.992;37.252;2023-09-30T14:09:09;99006.09;;;22.49;39.26
46111;BME280;31849;55.992;37.252;2023-09-30T14:14:36;99009.19;;;22.41;39.47
46111;BME280;31849;55.992;37.252;2023-09-30T14:19:41;99002.69;;;22.31;39.60
46111;BME280;31849;55.992;37.252;2023-09-30T14:24:44;99001.22;;;22.11;40.03
46111;BME280;31849;55.992;37.252;2023-09-30T14:29:48;98993.47;;;21.92;40.59
46111;BME280;31849;55.992;37.252;2023-09-30T14:34:53;98985.09;;;21.84;40.83
46111;BME280;31849;55.992;37.252;2023-09-30T14:39:57;98993.06;;;21.68;41.05
46111;BME280;31849;55.992;37.252;2023-09-30T14:45:01;98990.41;;;21.52;41.35
46111;BME280;31849;55.992;37.252;2023-09-30T14:50:07;98991.56;;;21.46;41.62
46111;BME280;31849;55.992;37.252;2023-09-30T14:55:11;98994.94;;;21.16;41.85
46111;BME280;31849;55.992;37.252;2023-09-30T15:00:15;98973.38;;;20.90;42.57
46111;BME280;31849;55.992;37.252;2023-09-30T15:05:21;98985.22;;;20.83;42.61
46111;BME280;31849;55.992;37.252;2023-09-30T15:10:25;98978.34;;;20.62;43.04
46111;BME280;31849;55.992;37.252;2023-09-30T15:15:29;98977.34;;;20.47;43.35
46111;BME280;31849;55.992;37.252;2023-09-30T15:20:38;98972.63;;;20.36;43.79
46111;BME280;31849;55.992;37.252;2023-09-30T15:25:43;98973.69;;;20.14;44.02
46111;BME280;31849;55.992;37.252;2023-09-30T15:30:50;98973.59;;;19.98;45.81
46111;BME280;31849;55.992;37.252;2023-09-30T15:35:55;98980.56;;;19.82;44.51
46111;BME280;31849;55.992;37.252;2023-09-30T15:40:59;98978.69;;;19.65;44.93
46111;BME280;31849;55.992;37.252;2023-09-30T15:46:05;98970.69;;;19.47;45.30
46111;BME280;31849;55.992;37.252;2023-09-30T15:51:12;98978.81;;;19.43;45.54
46111;BME280;31849;55.992;37.252;2023-09-30T15:56:16;98980.97;;;19.35;45.71
46111;BME280;31849;55.992;37.252;2023-09-30T16:01:19;98973.63;;;19.22;45.78
46111;BME280;31849;55.992;37.252;2023-09-30T16:06:24;98978.53;;;19.11;46.49
46111;BME280;31849;55.992;37.252;2023-09-30T16:11:28;98967.19;;;18.90;46.75
46111;BME280;31849;55.992;37.252;2023-09-30T16:16:32;98952.94;;;18.73;47.25
46111;BME280;31849;55.992;37.252;2023-09-30T16:21:37;98962.75;;;18.70;47.46
46111;BME280;31849;55.992;37.252;2023-09-30T16:26:40;98963.22;;;18.59;47.76
46111;BME280;31849;55.992;37.252;2023-09-30T16:31:44;98961.91;;;18.49;47.77
46111;BME280;31849;55.992;37.252;2023-09-30T16:36:49;98955.47;;;18.35;48.20
46111;BME280;31849;55.992;37.252;2023-09-30T16:41:53;98957.81;;;18.21;48.49
46111;BME280;31849;55.992;37.252;2023-09-30T16:46:56;98950.25;;;18.13;48.56
46111;BME280;31849;55.992;37.252;2023-09-30T16:52:01;98945.31;;;18.05;49.15
46111;BME280;31849;55.992;37.252;2023-09-30T16:57:05;98945.66;;;17.96;48.83
46111;BME280;31849;55.992;37.252;2023-09-30T17:02:09;98938.84;;;17.92;48.93
46111;BME280;31849;55.992;37.252;2023-09-30T17:07:15;98929.44;;;17.85;49.22
46111;BME280;31849;55.992;37.252;2023-09-30T17:12:19;98925.53;;;17.73;49.28
46111;BME280;31849;55.992;37.252;2023-09-30T17:17:22;98907.53;;;17.64;49.50
46111;BME280;31849;55.992;37.252;2023-09-30T17:22:27;98910.94;;;17.66;49.54
46111;BME280;31849;55.992;37.252;2023-09-30T17:27:31;98908.38;;;17.64;49.40
46111;BME280;31849;55.992;37.252;2023-09-30T17:32:35;98907.53;;;17.64;49.39
46111;BME280;31849;55.992;37.252;2023-09-30T17:37:40;98900.53;;;17.63;48.79
46111;BME280;31849;55.992;37.252;2023-09-30T17:42:44;98896.69;;;17.49;49.63
46111;BME280;31849;55.992;37.252;2023-09-30T17:47:48;98893.31;;;17.46;49.59
46111;BME280;31849;55.992;37.252;2023-09-30T17:52:53;98885.38;;;17.47;49.71
46111;BME280;31849;55.992;37.252;2023-09-30T17:57:56;98873.47;;;17.38;49.67
46111;BME280;31849;55.992;37.252;2023-09-30T18:03:00;98879.75;;;17.34;49.88
46111;BME280;31849;55.992;37.252;2023-09-30T18:08:05;98871.19;;;17.29;50.45
46111;BME280;31849;55.992;37.252;2023-09-30T18:13:09;98872.78;;;17.33;50.01
46111;BME280;31849;55.992;37.252;2023-09-30T18:18:13;98870.34;;;17.29;50.09
46111;BME280;31849;55.992;37.252;2023-09-30T18:23:18;98864.00;;;17.34;50.14
46111;BME280;31849;55.992;37.252;2023-09-30T18:28:21;98852.56;;;17.35;50.21
46111;BME280;31849;55.992;37.252;2023-09-30T18:33:25;98853.88;;;17.46;49.92
46111;BME280;31849;55.992;37.252;2023-09-30T18:38:31;98851.75;;;17.33;50.29
46111;BME280;31849;55.992;37.252;2023-09-30T18:43:34;98847.25;;;17.37;50.25
46111;BME280;31849;55.992;37.252;2023-09-30T18:48:38;98843.81;;;17.35;50.30
46111;BME280;31849;55.992;37.252;2023-09-30T18:53:43;98827.81;;;17.41;50.15
46111;BME280;31849;55.992;37.252;2023-09-30T18:58:47;98826.69;;;17.47;50.34
46111;BME280;31849;55.992;37.252;2023-09-30T19:03:50;98824.88;;;17.49;50.16
46111;BME280;31849;55.992;37.252;2023-09-30T19:08:57;98824.63;;;17.55;50.20
46111;BME280;31849;55.992;37.252;2023-09-30T19:14:01;98809.00;;;17.30;50.45
46111;BME280;31849;55.992;37.252;2023-09-30T19:19:06;98807.34;;;17.27;50.72
46111;BME280;31849;55.992;37.252;2023-09-30T19:24:12;98810.63;;;17.32;50.70
46111;BME280;31849;55.992;37.252;2023-09-30T19:29:16;98802.22;;;17.24;50.85
46111;BME280;31849;55.992;37.252;2023-09-30T19:34:19;98809.97;;;17.27;50.88
46111;BME280;31849;55.992;37.252;2023-09-30T19:39:27;98810.53;;;17.35;50.85
46111;BME280;31849;55.992;37.252;2023-09-30T19:44:31;98798.56;;;17.28;50.98
46111;BME280;31849;55.992;37.252;2023-09-30T19:49:35;98809.13;;;17.27;50.86
46111;BME280;31849;55.992;37.252;2023-09-30T19:54:40;98799.22;;;17.33;50.83
46111;BME280;31849;55.992;37.252;2023-09-30T19:59:43;98795.13;;;17.26;51.11
46111;BME280;31849;55.992;37.252;2023-09-30T20:04:47;98794.59;;;17.18;51.32
46111;BME280;31849;55.992;37.252;2023-09-30T20:09:52;98790.56;;;17.09;51.73
46111;BME280;31849;55.992;37.252;2023-09-30T20:14:57;98789.28;;;16.97;51.74
46111;BME280;31849;55.992;37.252;2023-09-30T20:20:01;98790.88;;;16.78;52.14
46111;BME280;31849;55.992;37.252;2023-09-30T20:25:08;98779.75;;;16.71;52.98
46111;BME280;31849;55.992;37.252;2023-09-30T20:30:12;98781.75;;;16.64;52.54
46111;BME280;31849;55.992;37.252;2023-09-30T20:35:16;98774.28;;;16.53;52.88
46111;BME280;31849;55.992;37.252;2023-09-30T20:40:21;98776.09;;;16.51;53.04
46111;BME280;31849;55.992;37.252;2023-09-30T20:45:25;98770.75;;;16.31;53.67
46111;BME280;31849;55.992;37.252;2023-09-30T20:50:28;98764.19;;;16.19;54.01
46111;BME280;31849;55.992;37.252;2023-09-30T20:55:33;98763.94;;;16.25;53.88
46111;BME280;31849;55.992;37.252;2023-09-30T21:00:38;98757.38;;;16.13;54.12
46111;BME280;31849;55.992;37.252;2023-09-30T21:05:42;98753.31;;;16.05;54.31
46111;BME280;31849;55.992;37.252;2023-09-30T21:10:47;98749.81;;;16.06;54.72
46111;BME280;31849;55.992;37.252;2023-09-30T21:15:51;98740.28;;;16.03;54.47
46111;BME280;31849;55.992;37.252;2023-09-30T21:20:54;98735.38;;;15.94;54.96
46111;BME280;31849;55.992;37.252;2023-09-30T21:25:59;98741.31;;;15.99;54.38
46111;BME280;31849;55.992;37.252;2023-09-30T21:31:03;98735.47;;;15.91;54.80
46111;BME280;31849;55.992;37.252;2023-09-30T21:36:08;98728.53;;;15.90;54.73
46111;BME280;31849;55.992;37.252;2023-09-30T21:41:14;98728.00;;;15.80;55.37
46111;BME280;31849;55.992;37.252;2023-09-30T21:46:17;98730.63;;;15.80;55.01
46111;BME280;31849;55.992;37.252;2023-09-30T21:51:21;98727.97;;;15.81;55.01
46111;BME280;31849;55.992;37.252;2023-09-30T21:56:26;98723.81;;;15.74;55.19
46111;BME280;31849;55.992;37.252;2023-09-30T22:01:30;98717.00;;;15.69;55.53
46111;BME280;31849;55.992;37.252;2023-09-30T22:06:34;98709.53;;;15.58;55.45
46111;BME280;31849;55.992;37.252;2023-09-30T22:11:39;98703.22;;;15.63;55.37
46111;BME280;31849;55.992;37.252;2023-09-30T22:16:42;98705.25;;;15.55;55.48
46111;BME280;31849;55.992;37.252;2023-09-30T22:21:46;98703.53;;;15.54;55.39
46111;BME280;31849;55.992;37.252;2023-09-30T22:26:51;98701.06;;;15.50;55.79
46111;BME280;31849;55.992;37.252;2023-09-30T22:31:54;98692.53;;;15.44;55.82
46111;BME280;31849;55.992;37.252;2023-09-30T22:36:58;98683.84;;;15.42;55.62
46111;BME280;31849;55.992;37.252;2023-09-30T22:42:03;98681.28;;;15.41;55.93
46111;BME280;31849;55.992;37.252;2023-09-30T22:47:07;98681.56;;;15.33;55.91
46111;BME280;31849;55.992;37.252;2023-09-30T22:52:11;98674.63;;;15.32;55.99
46111;BME280;31849;55.992;37.252;2023-09-30T22:57:17;98676.38;;;15.32;56.07
46111;BME280;31849;55.992;37.252;2023-09-30T23:02:21;98670.50;;;15.25;56.30
46111;BME280;31849;55.992;37.252;2023-09-30T23:07:26;98668.16;;;15.16;56.19
46111;BME280;31849;55.992;37.252;2023-09-30T23:12:32;98664.81;;;15.12;56.49
46111;BME280;31849;55.992;37.252;2023-09-30T23:17:35;98649.22;;;15.09;56.42
46111;BME280;31849;55.992;37.252;2023-09-30T23:22:47;98652.78;;;15.06;56.56
46111;BME280;31849;55.992;37.252;2023-09-30T23:27:56;98642.47;;;15.02;56.90
46111;BME280;31849;55.992;37.252;2023-09-30T23:33:04;98633.22;;;14.91;56.54
46111;BME280;31849;55.992;37.252;2023-09-30T23:38:09;98646.97;;;14.98;56.53
46111;BME280;31849;55.992;37.252;2023-09-30T23:43:16;98627.22;;;14.88;56.71
46111;BME280;31849;55.992;37.252;2023-09-30T23:48:20;98637.81;;;14.85;56.99
46111;BME280;31849;55.992;37.252;2023-09-30T23:53:24;98635.19;;;14.85;57.11
46111;BME280;31849;55.992;37.252;2023-09-30T23:58:30;98634.22;;;14.87;56.88
